createdAt,value
2019-03-01T00:04:49.767Z,10.27
2019-03-01T00:07:56.270Z,8.50
2019-03-01T00:11:02.899Z,10.33
2019-03-01T00:14:09.275Z,8.07
2019-03-01T00:17:15.976Z,9.30
2019-03-01T00:19:56.185Z,8.57
2019-03-01T00:22:36.376Z,6.70
2019-03-01T00:25:43.026Z,11.70
2019-03-01T00:28:43.243Z,14.73
2019-03-01T00:31:23.779Z,5.23
2019-03-01T00:34:18.552Z,13.17
2019-03-01T00:37:25.227Z,7.90
2019-03-01T00:40:31.626Z,7.93
2019-03-01T00:43:39.021Z,10.50
2019-03-01T00:46:07.717Z,11.40
2019-03-01T00:48:35.581Z,6.20
2019-03-01T00:51:03.597Z,7.33
2019-03-01T00:53:31.811Z,8.33
2019-03-01T00:56:00.360Z,8.83
2019-03-01T00:58:29.227Z,8.63
2019-03-01T01:00:57.765Z,9.00
2019-03-01T01:03:26.106Z,5.30
2019-03-01T01:05:54.311Z,6.03
2019-03-01T01:08:22.579Z,4.20
2019-03-01T01:10:50.938Z,7.03
2019-03-01T01:13:19.322Z,14.97
2019-03-01T01:15:47.759Z,6.53
2019-03-01T01:18:16.271Z,6.53
2019-03-01T01:20:44.907Z,5.83
2019-03-01T01:23:13.510Z,4.30
2019-03-01T01:25:42.080Z,8.37
2019-03-01T01:28:09.527Z,9.90
2019-03-01T01:30:38.122Z,9.23
2019-03-01T01:33:06.429Z,6.20
2019-03-01T01:35:35.095Z,5.53
2019-03-01T01:38:03.673Z,4.77
2019-03-01T01:40:31.931Z,7.83
2019-03-01T01:43:00.560Z,4.97
2019-03-01T01:45:29.088Z,7.23
2019-03-01T01:47:57.327Z,5.60
2019-03-01T01:50:25.501Z,3.17
2019-03-01T01:52:53.710Z,5.17
2019-03-01T01:55:21.642Z,5.63
2019-03-01T01:57:50.245Z,5.27
2019-03-01T02:00:18.534Z,7.33
2019-03-01T02:02:46.791Z,7.33
2019-03-01T02:05:14.923Z,3.23
2019-03-01T02:07:43.235Z,6.00
2019-03-01T02:10:11.858Z,5.60
2019-03-01T02:12:40.143Z,8.47
2019-03-01T02:18:29.690Z,4.57
2019-03-01T02:20:57.887Z,3.03
2019-03-01T02:23:26.126Z,4.43
2019-03-01T02:25:54.426Z,5.93
2019-03-01T02:28:22.410Z,4.73
2019-03-01T02:30:50.410Z,3.73
2019-03-01T02:33:18.588Z,3.23
2019-03-01T02:35:46.841Z,4.53
2019-03-01T02:38:15.568Z,4.87
2019-03-01T02:40:44.142Z,2.57
2019-03-01T02:43:12.758Z,3.40
2019-03-01T02:45:40.665Z,5.10
2019-03-01T02:48:08.552Z,3.03
2019-03-01T02:50:37.178Z,3.03
2019-03-01T02:53:05.446Z,3.03
2019-03-01T02:55:33.349Z,3.00
2019-03-01T02:58:02.053Z,3.30
2019-03-01T03:00:29.633Z,1.90
2019-03-01T03:02:58.280Z,4.30
2019-03-01T03:05:26.996Z,3.67
2019-03-01T03:08:14.676Z,6.27
2019-03-01T03:10:43.584Z,3.43
2019-03-01T03:13:11.163Z,3.17
2019-03-01T03:18:36.789Z,4.93
2019-03-01T03:21:05.407Z,1.90
2019-03-01T03:23:33.653Z,5.33
2019-03-01T03:26:02.177Z,3.43
2019-03-01T03:28:30.157Z,4.53
2019-03-01T03:31:17.439Z,2.33
2019-03-01T03:33:45.691Z,2.70
2019-03-01T03:36:14.415Z,1.97
2019-03-01T03:38:42.967Z,2.40
2019-03-01T03:41:11.699Z,2.50
2019-03-01T03:43:51.120Z,4.03
2019-03-01T03:46:19.820Z,3.60
2019-03-01T03:48:47.996Z,2.77
2019-03-01T03:51:16.555Z,2.83
2019-03-01T03:53:45.277Z,4.47
2019-03-01T03:56:13.552Z,1.80
2019-03-01T03:58:41.822Z,4.27
2019-03-01T04:01:10.538Z,3.70
2019-03-01T04:03:39.045Z,2.63
2019-03-01T04:06:07.208Z,3.23
2019-03-01T04:08:35.896Z,4.30
2019-03-01T04:11:04.176Z,4.70
2019-03-01T04:13:32.336Z,3.30
2019-03-01T04:16:00.929Z,3.13
2019-03-01T04:18:29.168Z,3.47
2019-03-01T04:20:57.748Z,1.73
2019-03-01T04:23:25.670Z,3.33
2019-03-01T04:25:54.439Z,3.23
2019-03-01T04:28:22.362Z,3.37
2019-03-01T04:30:50.195Z,2.83
2019-03-01T04:33:18.404Z,4.07
2019-03-01T04:35:46.686Z,2.50
2019-03-01T04:38:14.973Z,4.17
2019-03-01T04:40:43.247Z,4.87
2019-03-01T04:43:12.054Z,3.57
2019-03-01T04:48:36.552Z,4.17
2019-03-01T04:51:05.219Z,3.10
2019-03-01T04:53:33.647Z,3.97
2019-03-01T04:56:01.486Z,4.97
2019-03-01T04:58:30.076Z,3.77
2019-03-01T05:00:58.454Z,3.77
2019-03-01T05:03:26.645Z,4.17
2019-03-01T05:05:54.825Z,3.37
2019-03-01T05:08:23.358Z,3.60
2019-03-01T05:10:51.607Z,5.73
2019-03-01T05:13:20.201Z,7.87
2019-03-01T05:15:48.682Z,5.63
2019-03-01T05:18:17.261Z,8.73
2019-03-01T05:24:06.772Z,7.90
2019-03-01T05:26:34.708Z,11.07
2019-03-01T05:29:03.224Z,13.07
2019-03-01T05:31:31.801Z,12.83
2019-03-01T05:34:00.512Z,9.20
2019-03-01T05:36:29.268Z,9.70
2019-03-01T05:38:57.911Z,8.47
2019-03-01T05:41:25.421Z,12.50
2019-03-01T05:43:53.982Z,13.17
2019-03-01T05:46:22.700Z,16.77
2019-03-01T05:48:50.269Z,16.63
2019-03-01T05:51:18.647Z,26.90
2019-03-01T05:53:47.209Z,34.97
2019-03-01T05:56:14.693Z,18.43
2019-03-01T05:58:45.713Z,27.63
2019-03-01T06:01:35.581Z,25.37
2019-03-01T06:04:10.133Z,22.23
2019-03-01T06:07:16.847Z,25.10
2019-03-01T06:10:23.328Z,13.80
2019-03-01T06:13:29.704Z,14.13
2019-03-01T06:16:36.364Z,11.43
2019-03-01T06:19:42.986Z,12.17
2019-03-01T06:22:49.612Z,16.23
2019-03-01T06:25:56.342Z,15.37
2019-03-01T06:28:49.924Z,9.00
2019-03-01T06:31:42.238Z,14.63
2019-03-01T06:34:48.923Z,7.57
2019-03-01T06:37:55.629Z,14.23
2019-03-01T06:41:21.557Z,10.27
2019-03-01T06:44:27.675Z,4.60
2019-03-01T06:47:34.367Z,9.60
2019-03-01T06:50:21.760Z,5.87
2019-03-01T06:52:49.644Z,3.00
2019-03-01T06:55:38.285Z,5.33
2019-03-01T06:58:08.411Z,4.83
2019-03-01T07:03:35.878Z,3.90
2019-03-01T07:06:03.830Z,1.17
2019-03-01T07:08:32.449Z,3.70
2019-03-01T07:11:00.304Z,2.20
2019-03-01T07:13:28.600Z,3.47
2019-03-01T07:15:56.168Z,2.87
2019-03-01T07:18:36.127Z,3.43
2019-03-01T07:21:16.163Z,4.20
2019-03-01T07:23:44.457Z,2.53
2019-03-01T07:26:12.336Z,1.77
2019-03-01T07:28:40.603Z,2.37
2019-03-01T07:31:09.194Z,7.70
2019-03-01T07:33:37.163Z,4.50
2019-03-01T07:36:05.159Z,4.37
2019-03-01T07:38:33.408Z,3.63
2019-03-01T07:41:01.696Z,3.33
2019-03-01T07:43:29.973Z,3.73
2019-03-01T07:45:57.571Z,5.07
2019-03-01T07:51:26.962Z,4.10
2019-03-01T07:53:55.740Z,5.13
2019-03-01T07:56:23.600Z,2.50
2019-03-01T07:58:51.989Z,1.30
2019-03-01T08:01:20.593Z,2.63
2019-03-01T08:03:52.293Z,1.90
2019-03-01T08:09:27.408Z,2.00
2019-03-01T08:15:15.873Z,1.87
2019-03-01T08:17:44.467Z,2.30
2019-03-01T08:20:13.864Z,3.33
2019-03-01T08:22:48.444Z,2.50
2019-03-01T08:25:23.736Z,3.17
2019-03-01T08:27:55.375Z,3.70
2019-03-01T08:30:22.939Z,4.13
2019-03-01T08:32:51.441Z,3.03
2019-03-01T08:35:19.809Z,2.33
2019-03-01T08:38:06.882Z,1.20
2019-03-01T08:40:35.188Z,2.50
2019-03-01T08:43:03.078Z,3.20
2019-03-01T08:45:32.906Z,2.07
2019-03-01T08:48:07.481Z,4.47
2019-03-01T08:50:35.938Z,4.10
2019-03-01T08:53:03.982Z,9.73
2019-03-01T08:55:35.662Z,7.27
2019-03-01T08:58:06.799Z,1.30
2019-03-01T09:00:40.095Z,6.83
2019-03-01T09:03:28.788Z,5.47
2019-03-01T09:05:57.450Z,4.80
2019-03-01T09:08:36.897Z,4.10
2019-03-01T09:11:23.790Z,9.27
2019-03-01T09:13:52.111Z,3.33
2019-03-01T09:19:22.395Z,1.63
2019-03-01T09:22:01.199Z,2.63
2019-03-01T09:24:30.035Z,6.33
2019-03-01T09:27:06.265Z,12.90
2019-03-01T09:29:41.306Z,3.37
2019-03-01T09:32:10.548Z,7.03
2019-03-01T09:34:38.768Z,5.20
2019-03-01T09:37:07.073Z,5.60
2019-03-01T09:39:35.356Z,3.03
2019-03-01T09:42:06.123Z,2.93
2019-03-01T09:44:42.943Z,1.60
2019-03-01T09:47:11.163Z,2.53
2019-03-01T09:49:39.815Z,2.77
2019-03-01T09:52:08.327Z,2.87
2019-03-01T09:54:36.603Z,1.50
2019-03-01T09:57:04.974Z,0.70
2019-03-01T09:59:32.937Z,1.20
2019-03-01T10:02:01.675Z,1.40
2019-03-01T10:04:29.909Z,3.73
2019-03-01T10:06:58.366Z,1.07
2019-03-01T10:09:26.303Z,1.20
2019-03-01T10:11:54.905Z,1.10
2019-03-01T10:14:23.515Z,0.80
2019-03-01T10:16:54.732Z,0.97
2019-03-01T10:19:22.896Z,3.33
2019-03-01T10:21:51.485Z,1.73
2019-03-01T10:24:19.778Z,0.97
2019-03-01T10:26:48.383Z,3.27
2019-03-01T10:29:16.847Z,2.30
2019-03-01T10:31:44.793Z,2.00
2019-03-01T10:34:13.327Z,3.57
2019-03-01T10:36:41.833Z,1.90
2019-03-01T10:45:36.945Z,2.07
2019-03-01T10:48:05.194Z,3.73
2019-03-01T10:50:33.413Z,1.37
2019-03-01T10:53:02.155Z,1.23
2019-03-01T10:55:30.435Z,5.43
2019-03-01T10:57:58.612Z,8.63
2019-03-01T11:00:27.015Z,3.73
2019-03-01T11:02:55.742Z,31.60
2019-03-01T11:06:03.988Z,14.27
2019-03-01T11:08:32.131Z,7.13
2019-03-01T11:11:00.559Z,3.80
2019-03-01T11:13:29.338Z,4.73
2019-03-01T11:15:57.223Z,8.37
2019-03-01T11:18:25.487Z,5.50
2019-03-01T11:20:53.780Z,7.30
2019-03-01T11:23:22.325Z,17.60
2019-03-01T11:25:50.255Z,2.67
2019-03-01T11:28:18.767Z,7.67
2019-03-01T11:30:47.456Z,9.90
2019-03-01T11:33:15.884Z,6.30
2019-03-01T11:35:44.621Z,6.77
2019-03-01T11:38:12.937Z,16.07
2019-03-01T11:40:40.859Z,19.90
2019-03-01T11:43:09.134Z,5.10
2019-03-01T11:45:37.830Z,4.63
2019-03-01T11:48:06.668Z,2.47
2019-03-01T11:50:35.456Z,1.60
2019-03-01T11:53:03.798Z,2.57
2019-03-01T11:55:31.696Z,5.47
2019-03-01T11:58:00.049Z,2.93
2019-03-01T12:00:28.364Z,2.43
2019-03-01T12:02:56.627Z,5.93
2019-03-01T12:05:25.217Z,5.03
2019-03-01T12:10:56.030Z,5.80
2019-03-01T12:13:24.722Z,5.17
2019-03-01T12:19:02.158Z,8.17
2019-03-01T12:21:30.424Z,5.33
2019-03-01T12:24:29.969Z,3.43
2019-03-01T12:26:57.499Z,1.87
2019-03-01T12:30:06.197Z,1.30
2019-03-01T12:32:34.628Z,1.73
2019-03-01T12:35:02.663Z,23.90
2019-03-01T12:37:31.263Z,3.03
2019-03-01T12:39:59.886Z,1.63
2019-03-01T12:42:28.144Z,1.77
2019-03-01T12:44:56.499Z,1.20
2019-03-01T12:47:25.092Z,2.13
2019-03-01T12:49:53.876Z,1.30
2019-03-01T12:52:22.465Z,1.20
2019-03-01T12:54:51.140Z,1.30
2019-03-01T12:57:19.764Z,1.10
2019-03-01T12:59:48.269Z,1.30
2019-03-01T13:02:16.824Z,13.03
2019-03-01T13:04:45.632Z,9.40
2019-03-01T13:07:14.037Z,19.20
2019-03-01T13:09:41.641Z,5.30
2019-03-01T13:12:09.119Z,6.97
2019-03-01T13:14:39.525Z,4.17
2019-03-01T13:17:14.003Z,6.70
2019-03-01T13:20:21.930Z,7.43
2019-03-01T13:22:50.564Z,16.20
2019-03-01T13:25:18.530Z,5.37
2019-03-01T13:27:48.814Z,6.77
2019-03-01T13:30:23.950Z,2.63
2019-03-01T13:32:51.939Z,2.87
2019-03-01T13:35:22.205Z,5.43
2019-03-01T13:37:56.770Z,5.83
2019-03-01T13:40:33.612Z,3.87
2019-03-01T13:46:03.029Z,6.63
2019-03-01T13:48:31.625Z,5.63
2019-03-01T13:50:59.983Z,4.40
2019-03-01T13:54:09.012Z,13.70
2019-03-01T13:56:56.760Z,10.33
2019-03-01T13:59:24.703Z,6.83
2019-03-01T14:01:52.910Z,11.20
2019-03-01T14:04:20.511Z,9.53
2019-03-01T14:06:49.168Z,6.80
2019-03-01T14:09:17.665Z,20.00
2019-03-01T14:11:46.334Z,11.10
2019-03-01T14:14:14.258Z,11.77
2019-03-01T14:16:42.788Z,21.37
2019-03-01T14:19:11.318Z,57.17
2019-03-01T14:25:11.652Z,10.07
2019-03-01T14:27:39.666Z,9.93
2019-03-01T14:30:10.006Z,10.77
2019-03-01T14:32:38.337Z,7.03
2019-03-01T14:35:07.030Z,6.13
2019-03-01T14:40:36.730Z,9.37
2019-03-01T14:43:05.192Z,14.67
2019-03-01T14:45:33.212Z,10.00
2019-03-01T14:48:42.997Z,10.98
2019-03-01T14:51:18.231Z,5.87
2019-03-01T14:53:46.524Z,5.70
2019-03-01T14:56:22.357Z,5.13
2019-03-01T14:59:35.131Z,6.50
2019-03-01T15:02:43.822Z,8.93
2019-03-01T15:05:17.771Z,5.27
2019-03-01T15:14:12.314Z,24.43
2019-03-01T15:16:39.253Z,13.90
2019-03-01T15:19:08.057Z,16.03
2019-03-01T15:21:44.484Z,10.77
2019-03-01T15:24:12.523Z,7.63
2019-03-01T15:26:40.726Z,8.43
2019-03-01T15:29:08.919Z,9.83
2019-03-01T15:31:37.644Z,12.03
2019-03-01T15:34:05.554Z,11.60
2019-03-01T15:36:33.850Z,11.53
2019-03-01T15:39:04.045Z,8.00
2019-03-01T15:41:32.475Z,7.93
2019-03-01T15:44:01.203Z,11.70
2019-03-01T15:46:29.454Z,19.40
2019-03-01T15:48:57.613Z,10.17
2019-03-01T15:51:26.358Z,11.93
2019-03-01T15:53:57.690Z,22.47
2019-03-01T15:56:30.335Z,21.13
2019-03-01T15:58:58.290Z,14.60
2019-03-01T16:01:26.625Z,16.87
2019-03-01T16:03:57.168Z,16.13
2019-03-01T16:06:34.451Z,17.87
2019-03-01T16:09:15.213Z,17.70
2019-03-01T16:11:43.784Z,14.60
2019-03-01T16:14:11.659Z,15.67
2019-03-01T16:16:39.531Z,17.00
2019-03-01T16:19:11.103Z,12.00
2019-03-01T16:21:39.816Z,12.90
2019-03-01T16:24:18.110Z,20.50
2019-03-01T16:26:46.678Z,13.03
2019-03-01T16:29:15.229Z,15.20
2019-03-01T16:31:43.854Z,13.10
2019-03-01T16:34:11.850Z,15.00
2019-03-01T16:36:42.842Z,21.93
2019-03-01T16:39:12.501Z,25.30
2019-03-01T16:41:42.900Z,33.80
2019-03-01T16:44:19.615Z,29.40
2019-03-01T16:46:47.981Z,19.40
2019-03-01T16:49:16.280Z,29.07
2019-03-01T16:51:44.461Z,24.93
2019-03-01T16:54:16.303Z,25.30
2019-03-01T16:56:52.780Z,22.57
2019-03-01T16:59:32.910Z,29.63
2019-03-01T17:02:06.197Z,21.97
2019-03-01T17:04:38.083Z,20.83
2019-03-01T17:07:06.300Z,22.47
2019-03-01T17:09:34.657Z,21.63
2019-03-01T17:12:03.279Z,24.37
2019-03-01T17:14:34.915Z,28.67
2019-03-01T17:17:12.417Z,26.70
2019-03-01T17:19:40.863Z,32.17
2019-03-01T17:22:09.079Z,33.90
2019-03-01T17:24:37.442Z,33.33
2019-03-01T17:27:06.773Z,32.07
2019-03-01T17:29:45.899Z,28.57
2019-03-01T17:32:14.181Z,27.93
2019-03-01T17:34:42.445Z,31.53
2019-03-01T17:37:10.956Z,33.83
2019-03-01T17:40:09.996Z,34.37
2019-03-01T17:45:20.956Z,32.17
2019-03-01T17:48:29.628Z,36.50
2019-03-01T17:51:05.158Z,34.70
2019-03-01T17:53:33.871Z,33.77
2019-03-01T17:56:02.152Z,31.83
2019-03-01T18:01:40.302Z,33.60
2019-03-01T18:04:09.029Z,35.40
2019-03-01T18:06:37.630Z,37.90
2019-03-01T18:09:06.427Z,35.13
2019-03-01T18:11:34.408Z,35.50
2019-03-01T18:14:03.134Z,35.80
2019-03-01T18:16:31.054Z,32.53
2019-03-01T18:18:59.359Z,34.40
2019-03-01T18:21:28.123Z,32.87
2019-03-01T18:23:56.838Z,36.93
2019-03-01T18:26:24.933Z,31.90
2019-03-01T18:28:53.448Z,32.70
2019-03-01T18:31:22.226Z,34.83
2019-03-01T18:33:49.843Z,33.03
2019-03-01T18:36:18.222Z,34.10
2019-03-01T18:38:46.572Z,36.83
2019-03-01T18:41:14.487Z,34.43
2019-03-01T18:43:45.877Z,35.33
2019-03-01T18:46:20.605Z,39.17
2019-03-01T18:49:00.312Z,36.73
2019-03-01T18:51:28.592Z,33.20
2019-03-01T18:53:56.591Z,36.87
2019-03-01T18:56:28.334Z,39.33
2019-03-01T18:59:00.303Z,37.43
2019-03-01T19:01:28.744Z,36.70
2019-03-01T19:03:58.947Z,39.50
2019-03-01T19:06:33.678Z,39.30
2019-03-01T19:09:03.766Z,39.80
2019-03-01T19:11:34.667Z,38.53
2019-03-01T19:14:08.581Z,42.13
2019-03-01T19:16:36.795Z,46.17
2019-03-01T19:19:16.438Z,39.27
2019-03-01T19:21:44.104Z,48.80
2019-03-01T19:24:12.884Z,43.93
2019-03-01T19:26:41.195Z,52.03
2019-03-01T19:29:09.456Z,45.80
2019-03-01T19:31:37.082Z,50.80
2019-03-01T19:34:45.744Z,47.60
2019-03-01T19:37:14.541Z,45.87
2019-03-01T19:39:54.137Z,45.57
2019-03-01T19:42:22.083Z,50.17
2019-03-01T19:44:50.553Z,52.43
2019-03-01T19:47:18.108Z,48.90
2019-03-01T19:49:48.643Z,54.07
2019-03-01T19:52:22.846Z,58.87
2019-03-01T19:54:51.344Z,51.83
2019-03-01T19:57:20.014Z,53.83
2019-03-01T19:59:49.621Z,59.50
2019-03-01T20:02:27.831Z,54.07
2019-03-01T20:05:01.655Z,60.63
2019-03-01T20:07:29.523Z,69.90
2019-03-01T20:09:57.849Z,66.13
2019-03-01T20:12:25.873Z,81.67
2019-03-01T20:14:54.172Z,66.90
2019-03-01T20:17:22.682Z,75.63
2019-03-01T20:19:53.602Z,84.60
2019-03-01T20:22:27.232Z,79.00
2019-03-01T20:24:55.228Z,102.67
2019-03-01T20:27:24.080Z,84.30
2019-03-01T20:29:53.454Z,77.33
2019-03-01T20:32:21.962Z,73.77
2019-03-01T20:34:50.370Z,74.27
2019-03-01T20:37:18.728Z,74.33
2019-03-01T20:39:47.394Z,77.87
2019-03-01T20:42:24.539Z,81.37
2019-03-01T20:44:53.947Z,88.37
2019-03-01T20:47:23.056Z,77.23
2019-03-01T20:49:51.043Z,76.17
2019-03-01T20:52:19.363Z,73.47
2019-03-01T20:54:47.936Z,79.07
2019-03-01T20:57:16.679Z,80.37
2019-03-01T20:59:46.824Z,83.33
2019-03-01T21:02:15.934Z,83.33
2019-03-01T21:04:56.155Z,83.53
2019-03-01T21:07:24.071Z,73.57
2019-03-01T21:09:52.651Z,79.90
2019-03-01T21:12:21.371Z,89.00
2019-03-01T21:18:12.410Z,79.03
2019-03-01T21:20:40.620Z,75.23
2019-03-01T21:23:11.772Z,70.47
2019-03-01T21:25:45.233Z,77.97
2019-03-01T21:28:13.826Z,85.77
2019-03-01T21:30:41.988Z,93.23
2019-03-01T21:33:10.663Z,86.53
2019-03-01T21:35:39.301Z,104.17
2019-03-01T21:38:10.649Z,99.03
2019-03-01T21:41:24.099Z,98.27
2019-03-01T21:43:52.199Z,93.27
2019-03-01T21:46:20.574Z,82.90
2019-03-01T21:48:48.784Z,69.40
2019-03-01T21:51:18.514Z,77.57
2019-03-01T21:53:52.627Z,70.10
2019-03-01T21:56:20.652Z,78.67
2019-03-01T21:58:49.348Z,82.00
2019-03-01T22:01:17.548Z,87.10
2019-03-01T22:03:45.834Z,59.30
2019-03-01T22:06:14.420Z,62.80
2019-03-01T22:08:44.861Z,74.97
2019-03-01T22:11:20.974Z,73.17
2019-03-01T22:13:50.293Z,69.97
2019-03-01T22:16:19.775Z,78.13
2019-03-01T22:18:49.075Z,81.63
2019-03-01T22:21:37.597Z,85.27
2019-03-01T22:27:46.902Z,78.00
2019-03-01T22:30:27.995Z,88.17
2019-03-01T22:36:05.292Z,96.40
2019-03-01T22:38:37.600Z,90.27
2019-03-01T22:41:04.825Z,92.83
2019-03-01T22:44:24.971Z,92.83
2019-03-01T22:46:53.779Z,90.83
2019-03-01T22:49:22.413Z,96.13
2019-03-01T22:51:52.910Z,95.13
2019-03-01T22:54:20.768Z,87.13
2019-03-01T22:56:49.540Z,94.63
2019-03-01T22:59:25.799Z,86.27
2019-03-01T23:01:56.615Z,88.17
2019-03-01T23:04:26.570Z,85.73
2019-03-01T23:07:01.771Z,81.23
2019-03-01T23:09:30.247Z,78.47
2019-03-01T23:11:58.894Z,85.27
2019-03-01T23:14:30.700Z,90.47
2019-03-01T23:17:03.569Z,91.87
2019-03-01T23:19:43.887Z,84.77
2019-03-01T23:22:12.547Z,87.20
2019-03-01T23:24:40.928Z,95.03
2019-03-01T23:27:09.505Z,90.60
2019-03-01T23:29:37.328Z,90.23
2019-03-01T23:32:05.611Z,84.70
2019-03-01T23:34:33.812Z,85.90
2019-03-01T23:37:03.570Z,83.57
2019-03-01T23:39:31.985Z,80.90
2019-03-01T23:42:00.393Z,85.03
2019-03-01T23:44:28.659Z,80.23
2019-03-01T23:46:59.524Z,75.17
2019-03-01T23:49:55.696Z,77.47
2019-03-01T23:52:30.511Z,74.20
2019-03-01T23:54:59.692Z,85.13
2019-03-01T23:57:28.329Z,81.83
